createdAt,value
2019-03-18T00:00:00.388Z,99597.64
2019-03-18T00:00:32.528Z,99597.22
2019-03-18T00:01:03.929Z,99605.48
2019-03-18T00:01:35.114Z,99605.48
2019-03-18T00:02:07.148Z,99624.80
2019-03-18T00:02:38.316Z,99623.46
2019-03-18T00:03:09.570Z,99623.46
2019-03-18T00:03:40.756Z,99626.95
2019-03-18T00:04:11.998Z,99631.30
2019-03-18T00:04:43.168Z,99632.19
2019-03-18T00:05:14.375Z,99632.19
2019-03-18T00:05:45.600Z,99627.77
2019-03-18T00:06:16.814Z,99620.73
2019-03-18T00:06:47.968Z,99620.73
2019-03-18T00:07:19.172Z,99640.91
2019-03-18T00:07:50.351Z,99638.67
2019-03-18T00:08:22.667Z,99647.02
2019-03-18T00:08:53.828Z,99650.93
2019-03-18T00:09:25.055Z,99650.93
2019-03-18T00:09:56.256Z,99654.39
2019-03-18T00:10:27.471Z,99640.44
2019-03-18T00:10:58.714Z,99646.55
2019-03-18T00:11:29.934Z,99622.84
2019-03-18T00:12:01.093Z,99647.40
2019-03-18T00:12:32.323Z,99646.55
2019-03-18T00:13:03.475Z,99646.55
2019-03-18T00:13:34.685Z,99648.70
2019-03-18T00:14:05.836Z,99648.70
2019-03-18T00:14:37.046Z,99633.78
2019-03-18T00:15:08.436Z,99631.64
2019-03-18T00:15:39.626Z,99637.75
2019-03-18T00:16:10.812Z,99640.36
2019-03-18T00:16:42.045Z,99637.32
2019-03-18T00:17:13.282Z,99642.13
2019-03-18T00:17:44.546Z,99646.04
2019-03-18T00:18:15.785Z,99644.28
2019-03-18T00:18:47.014Z,99644.28
2019-03-18T00:19:18.281Z,99642.97
2019-03-18T00:19:49.527Z,99642.97
2019-03-18T00:20:20.757Z,99644.74
2019-03-18T00:20:51.988Z,99652.58
2019-03-18T00:21:23.194Z,99652.58
2019-03-18T00:21:54.475Z,99662.61
2019-03-18T00:22:25.678Z,99641.08
2019-03-18T00:22:56.831Z,99655.61
2019-03-18T00:23:28.052Z,99655.61
2019-03-18T00:23:59.212Z,99652.11
2019-03-18T00:24:30.421Z,99659.95
2019-03-18T00:25:03.078Z,99659.95
2019-03-18T00:25:34.282Z,99656.91
2019-03-18T00:26:05.432Z,99640.61
2019-03-18T00:26:36.646Z,99655.11
2019-03-18T00:27:07.814Z,99645.45
2019-03-18T00:27:39.061Z,99638.38
2019-03-18T00:28:10.212Z,99638.38
2019-03-18T00:28:41.424Z,99655.95
2019-03-18T00:29:12.583Z,99658.59
2019-03-18T00:29:43.809Z,99653.38
2019-03-18T00:30:19.015Z,99653.38
2019-03-18T00:30:50.236Z,99649.00
2019-03-18T00:31:21.476Z,99633.11
2019-03-18T00:31:52.696Z,99633.11
2019-03-18T00:32:23.953Z,99637.45
2019-03-18T00:32:55.268Z,99637.45
2019-03-18T00:33:26.504Z,99655.48
2019-03-18T00:33:58.038Z,99653.33
2019-03-18T00:34:29.283Z,99653.75
2019-03-18T00:35:00.519Z,99659.40
2019-03-18T00:35:31.765Z,99659.40
2019-03-18T00:36:03.004Z,99659.81
2019-03-18T00:36:34.226Z,99655.90
2019-03-18T00:37:05.391Z,99639.59
2019-03-18T00:37:36.611Z,99654.12
2019-03-18T00:38:07.764Z,99654.12
2019-03-18T00:38:38.994Z,99649.33
2019-03-18T00:39:10.169Z,99643.09
2019-03-18T00:39:41.433Z,99640.43
2019-03-18T00:40:17.621Z,99652.78
2019-03-18T00:40:48.837Z,99652.78
2019-03-18T00:41:20.033Z,99658.85
2019-03-18T00:41:51.201Z,99654.09
2019-03-18T00:42:22.395Z,99628.60
2019-03-18T00:42:53.616Z,99628.60
2019-03-18T00:43:24.865Z,99637.32
2019-03-18T00:43:56.057Z,99650.59
2019-03-18T00:44:27.429Z,99650.59
2019-03-18T00:44:58.596Z,99654.52
2019-03-18T00:45:29.787Z,99653.20
2019-03-18T00:46:00.966Z,99657.13
2019-03-18T00:46:32.194Z,99657.13
2019-03-18T00:47:03.412Z,99649.70
2019-03-18T00:47:34.620Z,99649.70
2019-03-18T00:48:05.776Z,99630.88
2019-03-18T00:48:36.992Z,99640.98
2019-03-18T00:49:08.160Z,99653.62
2019-03-18T00:49:39.411Z,99653.62
2019-03-18T00:50:14.670Z,99634.70
2019-03-18T00:50:45.884Z,99634.70
2019-03-18T00:51:17.055Z,99632.89
2019-03-18T00:51:48.278Z,99632.89
2019-03-18T00:52:19.440Z,99650.05
2019-03-18T00:52:50.652Z,99640.27
2019-03-18T00:53:21.831Z,99650.42
2019-03-18T00:53:53.076Z,99653.03
2019-03-18T00:54:24.452Z,99633.31
2019-03-18T00:54:56.663Z,99633.31
2019-03-18T00:55:27.816Z,99653.50
2019-03-18T00:55:59.011Z,99647.81
2019-03-18T00:56:30.169Z,99651.73
2019-03-18T00:57:01.391Z,99651.73
2019-03-18T00:57:32.537Z,99628.09
2019-03-18T00:58:03.755Z,99639.98
2019-03-18T00:58:34.929Z,99629.77
2019-03-18T00:59:06.170Z,99648.70
2019-03-18T00:59:37.299Z,99621.40
2019-03-18T01:00:18.067Z,99644.77
2019-03-18T01:00:49.231Z,99644.77
2019-03-18T01:01:20.454Z,99655.17
2019-03-18T01:01:51.640Z,99644.73
2019-03-18T01:02:22.867Z,99652.14
2019-03-18T01:02:54.346Z,99652.14
2019-03-18T01:03:25.599Z,99649.07
2019-03-18T01:03:56.844Z,99646.92
2019-03-18T01:04:28.093Z,99631.92
2019-03-18T01:04:59.332Z,99631.92
2019-03-18T01:05:30.596Z,99651.22
2019-03-18T01:06:01.823Z,99647.30
2019-03-18T01:06:33.113Z,99655.13
2019-03-18T01:07:04.319Z,99655.13
2019-03-18T01:07:35.484Z,99647.72
2019-03-18T01:08:06.714Z,99649.02
2019-03-18T01:08:37.850Z,99649.02
2019-03-18T01:09:09.160Z,99643.29
2019-03-18T01:09:40.297Z,99626.15
2019-03-18T01:10:14.321Z,99655.51
2019-03-18T01:10:45.486Z,99647.21
2019-03-18T01:11:16.680Z,99647.21
2019-03-18T01:11:47.902Z,99652.44
2019-03-18T01:12:19.194Z,99651.13
2019-03-18T01:12:50.428Z,99646.78
2019-03-18T01:13:21.687Z,99629.27
2019-03-18T01:13:52.924Z,99642.45
2019-03-18T01:14:24.540Z,99642.45
2019-03-18T01:14:55.780Z,99635.05
2019-03-18T01:15:28.695Z,99635.05
2019-03-18T01:16:00.174Z,99637.23
2019-03-18T01:16:31.400Z,99637.23
2019-03-18T01:17:02.649Z,99639.84
2019-03-18T01:17:33.803Z,99639.84
2019-03-18T01:18:05.021Z,99638.53
2019-03-18T01:18:36.167Z,99638.53
2019-03-18T01:19:07.373Z,99617.86
2019-03-18T01:19:38.532Z,99637.64
2019-03-18T01:20:11.327Z,99637.19
2019-03-18T01:20:42.492Z,99637.19
2019-03-18T01:21:13.697Z,99632.17
2019-03-18T01:21:44.871Z,99632.17
2019-03-18T01:22:16.070Z,99655.88
2019-03-18T01:22:47.217Z,99655.88
2019-03-18T01:23:18.429Z,99649.78
2019-03-18T01:23:50.639Z,99631.71
2019-03-18T01:24:21.886Z,99631.71
2019-03-18T01:24:53.049Z,99662.41
2019-03-18T01:25:24.322Z,99658.49
2019-03-18T01:25:55.494Z,99660.18
2019-03-18T01:26:26.691Z,99660.18
2019-03-18T01:26:57.855Z,99642.56
2019-03-18T01:27:30.100Z,99662.41
2019-03-18T01:28:01.289Z,99662.41
2019-03-18T01:28:32.522Z,99655.42
2019-03-18T01:29:03.681Z,99655.42
2019-03-18T01:29:34.899Z,99650.86
2019-03-18T01:30:08.759Z,99650.86
2019-03-18T01:30:39.975Z,99667.13
2019-03-18T01:31:11.143Z,99668.44
2019-03-18T01:31:42.349Z,99668.44
2019-03-18T01:32:13.536Z,99678.88
2019-03-18T01:32:44.732Z,99678.88
2019-03-18T01:33:15.914Z,99675.38
2019-03-18T01:33:47.088Z,99663.88
2019-03-18T01:34:18.402Z,99661.22
2019-03-18T01:34:50.659Z,99661.22
2019-03-18T01:35:21.896Z,99678.84
2019-03-18T01:35:53.198Z,99676.17
2019-03-18T01:36:24.430Z,99676.17
2019-03-18T01:36:55.619Z,99664.20
2019-03-18T01:37:26.799Z,99664.20
2019-03-18T01:37:57.997Z,99688.77
2019-03-18T01:38:29.179Z,99688.77
2019-03-18T01:39:00.376Z,99678.70
2019-03-18T01:39:31.572Z,99674.17
2019-03-18T01:40:09.074Z,99689.61
2019-03-18T01:40:40.268Z,99689.61
2019-03-18T01:41:11.448Z,99664.61
2019-03-18T01:41:42.704Z,99681.77
2019-03-18T01:42:16.692Z,99681.77
2019-03-18T01:42:47.000Z,99679.16
2019-03-18T01:43:18.202Z,99679.16
2019-03-18T01:43:49.361Z,99673.89
2019-03-18T01:44:20.573Z,99651.93
2019-03-18T01:44:51.733Z,99665.59
2019-03-18T01:45:22.948Z,99665.59
2019-03-18T01:45:54.113Z,99673.84
2019-03-18T01:46:25.325Z,99673.84
2019-03-18T01:46:56.545Z,99674.27
2019-03-18T01:47:28.013Z,99671.66
2019-03-18T01:47:59.183Z,99680.37
2019-03-18T01:48:30.397Z,99677.72
2019-03-18T01:49:01.553Z,99681.16
2019-03-18T01:49:32.752Z,99681.16
2019-03-18T01:50:14.437Z,99665.73
2019-03-18T01:50:45.731Z,99680.28
2019-03-18T01:51:16.910Z,99673.23
2019-03-18T01:51:48.157Z,99671.94
2019-03-18T01:52:19.337Z,99671.94
2019-03-18T01:52:50.502Z,99674.13
2019-03-18T01:53:21.693Z,99670.20
2019-03-18T01:53:52.865Z,99658.00
2019-03-18T01:54:24.317Z,99636.45
2019-03-18T01:54:55.535Z,99655.20
2019-03-18T01:55:26.715Z,99662.38
2019-03-18T01:55:58.040Z,99662.38
2019-03-18T01:56:29.223Z,99641.73
2019-03-18T01:57:00.418Z,99662.38
2019-03-18T01:57:31.600Z,99662.38
2019-03-18T01:58:03.790Z,99648.25
2019-03-18T01:58:36.042Z,99648.25
2019-03-18T01:59:07.200Z,99650.39
2019-03-18T01:59:38.496Z,99673.19
2019-03-18T02:00:13.046Z,99664.48
2019-03-18T02:00:44.256Z,99651.66
2019-03-18T02:01:15.416Z,99651.66
2019-03-18T02:01:46.624Z,99644.28
2019-03-18T02:02:17.821Z,99643.83
2019-03-18T02:02:51.785Z,99659.67
2019-03-18T02:03:22.208Z,99659.67
2019-03-18T02:03:53.455Z,99656.64
2019-03-18T02:04:24.878Z,99640.37
2019-03-18T02:04:56.121Z,99640.37
2019-03-18T02:05:27.447Z,99642.10
2019-03-18T02:05:58.726Z,99656.60
2019-03-18T02:06:30.024Z,99656.60
2019-03-18T02:07:01.269Z,99664.02
2019-03-18T02:07:32.484Z,99658.37
2019-03-18T02:08:03.654Z,99650.35
2019-03-18T02:08:34.861Z,99648.20
2019-03-18T02:09:06.017Z,99648.20
2019-03-18T02:09:37.244Z,99657.06
2019-03-18T02:10:12.879Z,99652.58
2019-03-18T02:10:44.103Z,99652.58
2019-03-18T02:11:15.301Z,99671.00
2019-03-18T02:11:46.519Z,99649.92
2019-03-18T02:12:17.675Z,99649.92
2019-03-18T02:12:48.875Z,99651.65
2019-03-18T02:13:20.035Z,99667.92
2019-03-18T02:13:51.241Z,99667.92
2019-03-18T02:14:22.407Z,99660.92
2019-03-18T02:14:53.631Z,99660.05
2019-03-18T02:15:24.790Z,99655.24
2019-03-18T02:15:55.992Z,99655.24
2019-03-18T02:16:27.412Z,99658.27
2019-03-18T02:16:58.622Z,99638.97
2019-03-18T02:17:29.826Z,99653.94
2019-03-18T02:18:01.099Z,99653.94
2019-03-18T02:18:32.425Z,99652.96
2019-03-18T02:19:04.671Z,99666.98
2019-03-18T02:19:36.010Z,99666.98
2019-03-18T02:20:12.374Z,99664.79
2019-03-18T02:20:43.613Z,99664.79
2019-03-18T02:21:14.872Z,99670.02
2019-03-18T02:21:46.108Z,99670.02
2019-03-18T02:22:17.348Z,99672.62
2019-03-18T02:22:48.574Z,99673.92
2019-03-18T02:23:19.727Z,99673.92
2019-03-18T02:23:50.932Z,99671.31
2019-03-18T02:24:22.097Z,99667.83
2019-03-18T02:24:53.322Z,99666.98
2019-03-18T02:25:24.492Z,99674.40
2019-03-18T02:25:55.713Z,99668.30
2019-03-18T02:26:26.861Z,99668.30
2019-03-18T02:26:58.075Z,99662.50
2019-03-18T02:27:29.234Z,99670.48
2019-03-18T02:28:00.428Z,99670.02
2019-03-18T02:28:31.576Z,99672.20
2019-03-18T02:29:02.851Z,99665.53
2019-03-18T02:29:34.003Z,99661.14
2019-03-18T02:30:14.185Z,99652.30
2019-03-18T02:30:45.425Z,99671.22
2019-03-18T02:31:16.629Z,99669.88
2019-03-18T02:31:47.861Z,99673.73
2019-03-18T02:32:19.100Z,99673.73
2019-03-18T02:32:50.360Z,99658.34
2019-03-18T02:33:21.581Z,99658.34
2019-03-18T02:33:52.835Z,99673.73
2019-03-18T02:34:24.324Z,99672.44
2019-03-18T02:34:55.553Z,99676.34
2019-03-18T02:35:26.790Z,99682.02
2019-03-18T02:35:58.041Z,99682.02
2019-03-18T02:36:29.288Z,99681.14
2019-03-18T02:37:00.511Z,99657.03
2019-03-18T02:37:31.766Z,99657.03
2019-03-18T02:38:02.984Z,99670.19
2019-03-18T02:38:34.133Z,99679.83
2019-03-18T02:39:06.341Z,99675.50
2019-03-18T02:39:37.491Z,99656.43
2019-03-18T02:40:09.696Z,99680.72
2019-03-18T02:40:40.871Z,99680.72
2019-03-18T02:41:12.083Z,99670.09
2019-03-18T02:41:43.240Z,99668.31
2019-03-18T02:42:14.450Z,99668.31
2019-03-18T02:42:45.646Z,99683.28
2019-03-18T02:43:16.886Z,99694.60
2019-03-18T02:43:48.147Z,99694.60
2019-03-18T02:44:19.371Z,99684.12
2019-03-18T02:44:50.607Z,99669.57
2019-03-18T02:45:24.622Z,99669.57
2019-03-18T02:46:09.375Z,99674.78
2019-03-18T02:46:29.283Z,99677.34
2019-03-18T02:47:00.517Z,99691.43
2019-03-18T02:47:31.764Z,99693.20
2019-03-18T02:48:02.977Z,99693.20
2019-03-18T02:48:34.143Z,99697.06
2019-03-18T02:49:05.358Z,99697.06
2019-03-18T02:49:36.519Z,99701.40
2019-03-18T02:50:08.618Z,99700.97
2019-03-18T02:50:39.809Z,99699.21
2019-03-18T02:51:11.121Z,99699.67
2019-03-18T02:51:42.273Z,99699.67
2019-03-18T02:52:13.511Z,99698.78
2019-03-18T02:52:44.721Z,99704.42
2019-03-18T02:53:16.022Z,99689.14
2019-03-18T02:53:47.250Z,99699.21
2019-03-18T02:54:18.502Z,99687.82
2019-03-18T02:54:49.739Z,99697.84
2019-03-18T02:55:20.966Z,99698.31
2019-03-18T02:55:52.230Z,99698.31
2019-03-18T02:56:23.467Z,99704.41
2019-03-18T02:56:54.889Z,99704.41
2019-03-18T02:57:27.454Z,99700.88
2019-03-18T02:57:58.661Z,99692.53
2019-03-18T02:58:29.823Z,99691.59
2019-03-18T02:59:01.009Z,99687.62
2019-03-18T02:59:32.211Z,99703.05
2019-03-18T03:00:11.225Z,99703.48
2019-03-18T03:00:42.482Z,99703.48
2019-03-18T03:01:13.659Z,99697.38
2019-03-18T03:01:44.805Z,99690.22
2019-03-18T03:02:16.970Z,99695.97
2019-03-18T03:02:48.181Z,99700.40
2019-03-18T03:03:19.330Z,99700.40
2019-03-18T03:03:50.582Z,99701.70
2019-03-18T03:04:21.805Z,99698.68
2019-03-18T03:04:52.952Z,99698.68
2019-03-18T03:05:24.165Z,99677.56
2019-03-18T03:05:55.411Z,99692.53
2019-03-18T03:06:26.612Z,99699.09
2019-03-18T03:06:58.038Z,99702.59
2019-03-18T03:07:29.284Z,99704.31
2019-03-18T03:08:00.563Z,99704.31
2019-03-18T03:08:31.816Z,99694.52
2019-03-18T03:09:05.345Z,99684.95
2019-03-18T03:09:36.593Z,99684.95
2019-03-18T03:10:10.010Z,99702.95
2019-03-18T03:10:41.158Z,99687.94
2019-03-18T03:11:12.366Z,99688.81
2019-03-18T03:11:43.531Z,99699.82
2019-03-18T03:12:14.737Z,99699.82
2019-03-18T03:12:45.909Z,99707.64
2019-03-18T03:13:17.084Z,99707.64
2019-03-18T03:13:48.279Z,99688.25
2019-03-18T03:14:19.489Z,99694.08
2019-03-18T03:14:50.778Z,99704.52
2019-03-18T03:15:22.069Z,99703.63
2019-03-18T03:15:53.245Z,99703.63
2019-03-18T03:16:27.225Z,99698.41
2019-03-18T03:16:57.803Z,99680.78
2019-03-18T03:17:28.988Z,99701.44
2019-03-18T03:18:00.168Z,99701.44
2019-03-18T03:18:31.359Z,99695.30
2019-03-18T03:19:02.541Z,99701.02
2019-03-18T03:19:33.745Z,99700.09
2019-03-18T03:20:07.622Z,99682.92
2019-03-18T03:20:39.859Z,99682.92
2019-03-18T03:21:11.046Z,99707.44
2019-03-18T03:21:42.226Z,99696.44
2019-03-18T03:22:13.403Z,99706.55
2019-03-18T03:22:44.605Z,99680.26
2019-03-18T03:23:15.771Z,99680.26
2019-03-18T03:23:46.943Z,99690.73
2019-03-18T03:24:18.162Z,99708.32
2019-03-18T03:24:49.415Z,99708.32
2019-03-18T03:25:24.526Z,99703.52
2019-03-18T03:25:53.666Z,99697.80
2019-03-18T03:26:25.059Z,99697.80
2019-03-18T03:26:56.221Z,99685.53
2019-03-18T03:27:27.442Z,99697.36
2019-03-18T03:27:58.621Z,99697.36
2019-03-18T03:28:29.828Z,99677.61
2019-03-18T03:29:01.031Z,99678.44
2019-03-18T03:29:32.192Z,99692.56
2019-03-18T03:30:10.260Z,99689.95
2019-03-18T03:30:41.529Z,99677.50
2019-03-18T03:31:12.727Z,99690.80
2019-03-18T03:31:43.961Z,99690.80
2019-03-18T03:32:15.270Z,99692.98
2019-03-18T03:32:46.472Z,99692.98
2019-03-18T03:33:17.797Z,99699.50
2019-03-18T03:33:49.124Z,99684.06
2019-03-18T03:34:20.340Z,99684.06
2019-03-18T03:34:51.744Z,99699.09
2019-03-18T03:35:23.127Z,99699.04
2019-03-18T03:35:54.338Z,99701.23
2019-03-18T03:36:26.537Z,99692.94
2019-03-18T03:36:57.834Z,99692.94
2019-03-18T03:37:29.026Z,99684.89
2019-03-18T03:38:00.215Z,99684.89
2019-03-18T03:38:31.440Z,99700.77
2019-03-18T03:39:05.021Z,99701.60
2019-03-18T03:39:36.200Z,99691.52
2019-03-18T03:40:08.892Z,99703.31
2019-03-18T03:40:40.066Z,99703.31
2019-03-18T03:41:11.236Z,99705.92
2019-03-18T03:41:42.433Z,99702.38
2019-03-18T03:42:13.615Z,99686.08
2019-03-18T03:42:44.803Z,99686.08
2019-03-18T03:43:15.978Z,99704.98
2019-03-18T03:43:47.191Z,99709.77
2019-03-18T03:44:18.345Z,99704.09
2019-03-18T03:44:49.564Z,99718.01
2019-03-18T03:45:20.745Z,99717.13
2019-03-18T03:45:51.928Z,99717.13
2019-03-18T03:46:23.084Z,99719.31
2019-03-18T03:46:54.480Z,99717.08
2019-03-18T03:47:25.731Z,99698.61
2019-03-18T03:47:57.260Z,99703.16
2019-03-18T03:48:28.437Z,99703.16
2019-03-18T03:48:59.637Z,99710.98
2019-03-18T03:49:30.843Z,99710.87
2019-03-18T03:50:02.239Z,99716.19
2019-03-18T03:50:33.430Z,99699.91
2019-03-18T03:51:04.694Z,99712.28
2019-03-18T03:51:35.860Z,99708.79
2019-03-18T03:52:07.087Z,99711.84
2019-03-18T03:52:38.240Z,99713.57
2019-03-18T03:53:09.433Z,99710.96
2019-03-18T03:53:40.679Z,99710.96
2019-03-18T03:54:11.865Z,99714.78
2019-03-18T03:54:43.044Z,99717.38
2019-03-18T03:55:14.239Z,99717.38
2019-03-18T03:55:45.521Z,99694.98
2019-03-18T03:56:16.713Z,99717.38
2019-03-18T03:56:47.909Z,99702.34
2019-03-18T03:57:19.099Z,99722.12
2019-03-18T03:57:50.276Z,99722.12
2019-03-18T03:58:21.462Z,99724.26
2019-03-18T03:58:52.945Z,99705.47
2019-03-18T03:59:24.439Z,99726.40
2019-03-18T03:59:55.626Z,99718.56
2019-03-18T04:00:26.812Z,99702.65
2019-03-18T04:00:58.004Z,99720.70
2019-03-18T04:01:29.774Z,99726.80
2019-03-18T04:02:02.226Z,99722.01
2019-03-18T04:02:33.494Z,99722.01
2019-03-18T04:03:05.673Z,99723.27
2019-03-18T04:03:38.579Z,99730.25
2019-03-18T04:04:10.170Z,99735.88
2019-03-18T04:04:41.343Z,99728.11
2019-03-18T04:05:13.557Z,99732.02
2019-03-18T04:05:44.722Z,99732.02
2019-03-18T04:06:15.920Z,99727.22
2019-03-18T04:06:47.083Z,99727.22
2019-03-18T04:07:18.304Z,99715.69
2019-03-18T04:07:49.471Z,99742.45
2019-03-18T04:08:20.678Z,99742.45
2019-03-18T04:08:51.911Z,99736.77
2019-03-18T04:09:23.136Z,99736.77
2019-03-18T04:09:54.388Z,99736.30
2019-03-18T04:10:25.600Z,99735.88
2019-03-18T04:10:56.856Z,99738.89
2019-03-18T04:11:28.060Z,99748.90
2019-03-18T04:11:59.247Z,99748.90
2019-03-18T04:12:30.445Z,99756.20
2019-03-18T04:13:01.631Z,99756.20
2019-03-18T04:13:32.810Z,99754.48
2019-03-18T04:14:03.997Z,99751.41
2019-03-18T04:14:35.176Z,99752.59
2019-03-18T04:15:11.354Z,99741.56
2019-03-18T04:15:42.546Z,99759.99
2019-03-18T04:16:13.735Z,99759.99
2019-03-18T04:16:55.812Z,99751.76
2019-03-18T04:17:18.028Z,99748.27
2019-03-18T04:17:49.247Z,99750.03
2019-03-18T04:18:20.452Z,99750.03
2019-03-18T04:18:51.649Z,99750.45
2019-03-18T04:19:22.880Z,99750.45
2019-03-18T04:19:54.066Z,99734.09
2019-03-18T04:20:25.271Z,99753.89
2019-03-18T04:20:56.514Z,99739.31
2019-03-18T04:21:27.808Z,99755.59
2019-03-18T04:21:59.022Z,99732.74
2019-03-18T04:22:30.307Z,99752.58
2019-03-18T04:23:01.512Z,99752.58
2019-03-18T04:23:32.685Z,99739.31
2019-03-18T04:24:03.906Z,99752.11
2019-03-18T04:24:35.069Z,99754.72
2019-03-18T04:25:07.079Z,99736.17
2019-03-18T04:25:38.250Z,99736.17
2019-03-18T04:26:09.621Z,99756.78
2019-03-18T04:26:40.783Z,99748.50
2019-03-18T04:27:12.067Z,99748.50
2019-03-18T04:27:43.227Z,99757.16
2019-03-18T04:28:14.447Z,99757.16
2019-03-18T04:28:45.607Z,99738.31
2019-03-18T04:29:16.817Z,99755.84
2019-03-18T04:29:48.059Z,99756.72
2019-03-18T04:30:19.302Z,99761.05
2019-03-18T04:30:50.535Z,99761.05
2019-03-18T04:31:21.754Z,99764.07
2019-03-18T04:31:52.909Z,99764.07
2019-03-18T04:32:24.444Z,99744.23
2019-03-18T04:32:55.606Z,99744.23
2019-03-18T04:33:26.794Z,99749.90
2019-03-18T04:33:57.965Z,99763.18
2019-03-18T04:34:29.144Z,99762.59
2019-03-18T04:35:00.397Z,99768.80
2019-03-18T04:35:31.582Z,99768.33
2019-03-18T04:36:02.766Z,99768.33
2019-03-18T04:36:33.922Z,99774.38
2019-03-18T04:37:05.081Z,99774.38
2019-03-18T04:37:36.278Z,99778.28
2019-03-18T04:38:07.449Z,99778.28
2019-03-18T04:38:38.644Z,99777.39
2019-03-18T04:39:09.864Z,99773.02
2019-03-18T04:39:41.156Z,99773.02
2019-03-18T04:40:12.307Z,99770.39
2019-03-18T04:40:43.510Z,99770.39
2019-03-18T04:41:14.704Z,99760.98
2019-03-18T04:41:45.955Z,99780.30
2019-03-18T04:42:17.163Z,99780.30
2019-03-18T04:42:48.376Z,99777.25
2019-03-18T04:43:19.635Z,99760.49
2019-03-18T04:43:50.885Z,99760.49
2019-03-18T04:44:22.074Z,99773.52
2019-03-18T04:44:53.264Z,99759.97
2019-03-18T04:45:24.435Z,99759.97
2019-03-18T04:45:55.622Z,99778.45
2019-03-18T04:46:26.814Z,99783.23
2019-03-18T04:46:57.988Z,99783.23
2019-03-18T04:47:29.192Z,99784.55
2019-03-18T04:48:00.370Z,99784.53
2019-03-18T04:48:31.631Z,99784.53
2019-03-18T04:49:02.848Z,99774.28
2019-03-18T04:49:34.046Z,99782.93
2019-03-18T04:50:10.110Z,99782.93
2019-03-18T04:50:41.324Z,99788.80
2019-03-18T04:51:12.511Z,99788.80
2019-03-18T04:51:43.689Z,99788.39
2019-03-18T04:52:14.878Z,99795.32
2019-03-18T04:52:46.079Z,99782.66
2019-03-18T04:53:17.267Z,99782.66
2019-03-18T04:53:48.464Z,99796.55
2019-03-18T04:54:19.683Z,99798.29
2019-03-18T04:54:50.873Z,99798.29
2019-03-18T04:55:22.072Z,99781.92
2019-03-18T04:55:53.243Z,99781.92
2019-03-18T04:56:24.605Z,99776.23
2019-03-18T04:56:55.773Z,99776.23
2019-03-18T04:57:26.959Z,99795.59
2019-03-18T04:57:58.135Z,99780.96
2019-03-18T04:58:29.328Z,99780.96
2019-03-18T04:59:00.505Z,99795.13
2019-03-18T04:59:31.721Z,99794.66
2019-03-18T05:00:06.569Z,99794.66
2019-03-18T05:00:37.767Z,99795.02
2019-03-18T05:01:08.928Z,99796.38
2019-03-18T05:01:40.145Z,99795.48
2019-03-18T05:02:11.311Z,99798.92
2019-03-18T05:02:42.510Z,99798.92
2019-03-18T05:03:13.656Z,99796.31
2019-03-18T05:03:44.841Z,99797.19
2019-03-18T05:04:16.021Z,99793.28
2019-03-18T05:04:47.188Z,99792.41
2019-03-18T05:05:18.346Z,99788.48
2019-03-18T05:05:49.552Z,99794.16
2019-03-18T05:06:20.718Z,99785.83
2019-03-18T05:06:51.958Z,99785.83
2019-03-18T05:07:23.207Z,99788.43
2019-03-18T05:07:54.450Z,99788.43
2019-03-18T05:08:25.698Z,99783.96
2019-03-18T05:08:57.008Z,99794.92
2019-03-18T05:09:28.258Z,99794.92
2019-03-18T05:09:59.436Z,99792.31
2019-03-18T05:10:30.652Z,99786.56
2019-03-18T05:11:02.930Z,99791.84
2019-03-18T05:11:34.235Z,99797.53
2019-03-18T05:12:05.452Z,99786.80
2019-03-18T05:12:36.700Z,99794.81
2019-03-18T05:13:07.944Z,99808.31
2019-03-18T05:13:39.197Z,99801.33
2019-03-18T05:14:10.513Z,99785.44
2019-03-18T05:14:41.730Z,99785.44
2019-03-18T05:15:12.889Z,99807.01
2019-03-18T05:15:44.110Z,99802.63
2019-03-18T05:16:15.259Z,99803.93
2019-03-18T05:16:46.456Z,99805.23
2019-03-18T05:17:26.450Z,99787.09
2019-03-18T05:17:50.711Z,99811.75
2019-03-18T05:18:21.870Z,99806.95
2019-03-18T05:18:54.351Z,99803.93
2019-03-18T05:19:25.522Z,99802.63
2019-03-18T05:19:56.819Z,99805.70
2019-03-18T05:20:27.979Z,99807.01
2019-03-18T05:20:59.167Z,99807.01
2019-03-18T05:21:30.307Z,99810.44
2019-03-18T05:22:01.563Z,99820.03
2019-03-18T05:22:32.786Z,99810.44
2019-03-18T05:23:04.018Z,99808.73
2019-03-18T05:23:35.168Z,99808.73
2019-03-18T05:24:06.355Z,99810.44
2019-03-18T05:24:37.541Z,99815.30
2019-03-18T05:25:09.245Z,99813.94
2019-03-18T05:25:40.410Z,99813.94
2019-03-18T05:26:11.621Z,99812.22
2019-03-18T05:26:42.771Z,99812.22
2019-03-18T05:27:13.978Z,99809.61
2019-03-18T05:27:45.149Z,99815.66
2019-03-18T05:28:16.357Z,99815.66
2019-03-18T05:28:47.521Z,99796.38
2019-03-18T05:29:18.743Z,99811.80
2019-03-18T05:29:49.935Z,99813.52
2019-03-18T05:30:21.169Z,99810.91
2019-03-18T05:30:52.473Z,99807.01
2019-03-18T05:31:23.741Z,99817.89
2019-03-18T05:31:55.195Z,99795.97
2019-03-18T05:32:26.429Z,99792.34
2019-03-18T05:32:57.851Z,99815.77
2019-03-18T05:33:30.052Z,99815.77
2019-03-18T05:34:01.335Z,99812.77
2019-03-18T05:34:32.518Z,99812.77
2019-03-18T05:35:04.802Z,99801.38
2019-03-18T05:35:35.973Z,99808.44
2019-03-18T05:36:07.567Z,99808.44
2019-03-18T05:36:38.743Z,99801.98
2019-03-18T05:37:10.103Z,99801.98
2019-03-18T05:37:41.329Z,99811.92
2019-03-18T05:38:12.564Z,99806.30
2019-03-18T05:38:43.708Z,99806.30
2019-03-18T05:39:14.940Z,99805.41
2019-03-18T05:39:46.197Z,99819.33
2019-03-18T05:40:17.448Z,99810.64
2019-03-18T05:40:48.615Z,99811.12
2019-03-18T05:41:19.821Z,99811.12
2019-03-18T05:41:50.997Z,99807.62
2019-03-18T05:42:22.213Z,99807.62
2019-03-18T05:42:53.377Z,99807.21
2019-03-18T05:43:24.949Z,99805.48
2019-03-18T05:43:56.117Z,99788.30
2019-03-18T05:44:27.333Z,99783.09
2019-03-18T05:44:58.494Z,99783.09
2019-03-18T05:45:29.691Z,99804.66
2019-03-18T05:46:00.878Z,99805.55
2019-03-18T05:46:32.123Z,99803.41
2019-03-18T05:47:03.359Z,99805.14
2019-03-18T05:47:39.478Z,99805.14
2019-03-18T05:48:07.729Z,99801.70
2019-03-18T05:48:38.965Z,99801.70
2019-03-18T05:49:10.213Z,99806.09
2019-03-18T05:49:41.449Z,99803.48
2019-03-18T05:50:12.683Z,99803.48
2019-03-18T05:50:43.885Z,99800.89
2019-03-18T05:51:15.067Z,99789.38
2019-03-18T05:51:46.419Z,99789.38
2019-03-18T05:52:17.747Z,99803.97
2019-03-18T05:52:48.959Z,99803.97
2019-03-18T05:53:20.194Z,99795.73
2019-03-18T05:53:51.456Z,99797.88
2019-03-18T05:54:22.724Z,99801.78
2019-03-18T05:54:53.979Z,99798.81
2019-03-18T05:55:26.177Z,99796.63
2019-03-18T05:55:57.379Z,99799.23
2019-03-18T05:56:29.552Z,99798.39
2019-03-18T05:57:00.798Z,99805.38
2019-03-18T05:57:32.024Z,99805.38
2019-03-18T05:58:03.305Z,99798.76
2019-03-18T05:58:34.532Z,99807.53
2019-03-18T05:59:05.777Z,99807.53
2019-03-18T05:59:36.994Z,99786.00
2019-03-18T06:00:11.217Z,99804.08
2019-03-18T06:00:42.451Z,99804.08
2019-03-18T06:01:13.690Z,99800.60
2019-03-18T06:01:44.881Z,99800.60
2019-03-18T06:02:16.097Z,99782.52
2019-03-18T06:02:47.463Z,99804.09
2019-03-18T06:03:18.759Z,99804.09
2019-03-18T06:03:49.936Z,99808.94
2019-03-18T06:04:21.130Z,99820.25
2019-03-18T06:04:52.340Z,99818.97
2019-03-18T06:05:23.511Z,99818.97
2019-03-18T06:05:55.026Z,99819.38
2019-03-18T06:06:26.203Z,99822.86
2019-03-18T06:06:57.397Z,99820.69
2019-03-18T06:07:28.619Z,99819.80
2019-03-18T06:07:59.890Z,99821.55
2019-03-18T06:08:31.131Z,99818.95
2019-03-18T06:09:03.975Z,99823.27